createdAt,value
2017-10-22T00:00:54.602Z,12.9
2017-10-22T00:01:54.253Z,12.9
2017-10-22T00:03:52.303Z,12.9
2017-10-22T00:04:51.597Z,12.9
2017-10-22T00:05:50.886Z,12.9
2017-10-22T00:06:50.036Z,12.9
2017-10-22T00:07:49.180Z,12.9
2017-10-22T00:08:48.201Z,12.9
2017-10-22T00:09:47.722Z,12.9
2017-10-22T00:10:18.188Z,12.9
2017-10-22T00:10:48.246Z,12.9
2017-10-22T00:11:45.755Z,12.9
2017-10-22T00:12:45.695Z,12.9
2017-10-22T00:13:44.341Z,12.9
2017-10-22T00:14:43.515Z,12.9
2017-10-22T00:15:43.016Z,12.9
2017-10-22T00:16:41.905Z,12.9
2017-10-22T00:17:40.787Z,12.9
2017-10-22T00:18:40.183Z,12.9
2017-10-22T00:19:39.838Z,12.9
2017-10-22T00:20:39.131Z,12.9
2017-10-22T00:21:38.024Z,12.9
2017-10-22T00:22:37.045Z,12.9
2017-10-22T00:24:35.945Z,12.9
2017-10-22T00:26:34.219Z,12.8
2017-10-22T00:27:33.248Z,12.8
2017-10-22T00:28:32.893Z,12.8
2017-10-22T00:29:32.186Z,12.8
2017-10-22T00:30:30.967Z,12.8
2017-10-22T00:31:30.141Z,12.8
2017-10-22T00:32:29.459Z,12.8
2017-10-22T00:33:28.740Z,12.8
2017-10-22T00:34:28.027Z,12.8
2017-10-22T00:35:27.307Z,12.9
2017-10-22T00:36:26.596Z,12.9
2017-10-22T00:37:25.381Z,12.9
2017-10-22T00:38:24.403Z,12.9
2017-10-22T00:39:23.918Z,12.9
2017-10-22T00:40:22.940Z,12.9
2017-10-22T00:41:22.462Z,12.9
2017-10-22T00:42:21.487Z,12.9
2017-10-22T00:43:20.633Z,12.9
2017-10-22T00:44:19.647Z,12.9
2017-10-22T00:45:18.793Z,12.9
2017-10-22T00:46:18.314Z,12.9
2017-10-22T00:47:17.612Z,12.8
2017-10-22T00:48:16.498Z,12.8
2017-10-22T00:49:16.025Z,12.8
2017-10-22T00:50:15.175Z,12.8
2017-10-22T00:51:14.059Z,12.8
2017-10-22T00:51:44.884Z,12.8
2017-10-22T00:52:15.348Z,12.8
2017-10-22T00:52:45.679Z,12.8
2017-10-22T00:54:12.022Z,12.8
2017-10-22T00:55:11.305Z,12.8
2017-10-22T00:56:10.322Z,12.8
2017-10-22T00:57:09.358Z,12.7
2017-10-22T00:58:08.747Z,12.7
2017-10-22T00:59:07.768Z,12.7
2017-10-22T01:00:07.306Z,12.7
2017-10-22T01:01:06.868Z,12.7
2017-10-22T01:02:05.645Z,12.6
2017-10-22T01:03:04.529Z,12.6
2017-10-22T01:04:04.219Z,12.6
2017-10-22T01:05:03.382Z,12.6
2017-10-22T01:06:02.554Z,12.6
2017-10-22T01:07:01.440Z,12.6
2017-10-22T01:08:00.958Z,12.6
2017-10-22T01:09:00.110Z,12.6
2017-10-22T01:09:59.393Z,12.6
2017-10-22T01:10:58.417Z,12.6
2017-10-22T01:11:28.870Z,12.6
2017-10-22T01:11:59.067Z,12.5
2017-10-22T01:12:56.443Z,12.5
2017-10-22T01:13:56.102Z,12.5
2017-10-22T01:14:55.115Z,12.5
2017-10-22T01:15:54.266Z,12.5
2017-10-22T01:16:53.790Z,12.5
2017-10-22T01:17:53.077Z,12.4
2017-10-22T01:18:52.097Z,12.4
2017-10-22T01:19:51.235Z,12.4
2017-10-22T01:20:50.116Z,12.4
2017-10-22T01:21:49.771Z,12.4
2017-10-22T01:22:49.058Z,12.4
2017-10-22T01:23:48.070Z,12.4
2017-10-22T01:24:46.964Z,12.3
2017-10-22T01:25:46.482Z,12.3
2017-10-22T01:26:45.363Z,12.3
2017-10-22T01:27:44.883Z,12.3
2017-10-22T01:28:43.920Z,12.3
2017-10-22T01:29:42.929Z,12.3
2017-10-22T01:30:42.846Z,12.3
2017-10-22T01:31:41.229Z,12.3
2017-10-22T01:32:40.614Z,12.3
2017-10-22T01:33:39.899Z,12.2
2017-10-22T01:34:39.182Z,12.2
2017-10-22T01:35:38.350Z,12.2
2017-10-22T01:36:37.499Z,12.2
2017-10-22T01:37:36.511Z,12.2
2017-10-22T01:38:35.898Z,12.2
2017-10-22T01:39:34.786Z,12.2
2017-10-22T01:40:34.317Z,12.2
2017-10-22T01:41:33.199Z,12.2
2017-10-22T01:42:32.984Z,12.2
2017-10-22T01:43:32.133Z,12.2
2017-10-22T01:44:31.296Z,12.2
2017-10-22T01:45:30.578Z,12.2
2017-10-22T01:46:29.601Z,12.2
2017-10-22T01:47:28.758Z,12.2
2017-10-22T01:48:27.904Z,12.2
2017-10-22T01:49:27.186Z,12.2
2017-10-22T01:50:26.068Z,12.1
2017-10-22T01:51:25.246Z,12.1
2017-10-22T01:53:23.896Z,12.2
2017-10-22T01:54:22.915Z,12.2
2017-10-22T01:55:22.633Z,12.2
2017-10-22T01:56:21.281Z,12.2
2017-10-22T01:58:19.696Z,12.2
2017-10-22T01:59:19.489Z,12.2
2017-10-22T02:01:17.521Z,12.2
2017-10-22T02:02:16.403Z,12.2
2017-10-22T02:03:15.552Z,12.2
2017-10-22T02:04:14.942Z,12.2
2017-10-22T02:05:14.246Z,12.2
2017-10-22T02:06:13.530Z,12.2
2017-10-22T02:07:12.827Z,12.2
2017-10-22T02:08:11.470Z,12.1
2017-10-22T02:09:11.270Z,12.1
2017-10-22T02:10:10.436Z,12.1
2017-10-22T02:11:09.449Z,12.1
2017-10-22T02:12:08.470Z,12.1
2017-10-22T02:13:07.743Z,12.1
2017-10-22T02:14:06.764Z,12.1
2017-10-22T02:15:06.295Z,12.1
2017-10-22T02:16:05.576Z,12
2017-10-22T02:17:04.355Z,12
2017-10-22T02:18:03.367Z,12
2017-10-22T02:19:02.760Z,12
2017-10-22T02:20:01.924Z,12
2017-10-22T02:21:01.338Z,12
2017-10-22T02:22:00.484Z,12
2017-10-22T02:22:59.900Z,12
2017-10-22T02:23:58.685Z,12
2017-10-22T02:24:57.834Z,12
2017-10-22T02:25:56.983Z,12
2017-10-22T02:26:56.769Z,12
2017-10-22T02:27:55.286Z,12
2017-10-22T02:28:54.933Z,12
2017-10-22T02:29:25.258Z,12
2017-10-22T02:30:53.238Z,12
2017-10-22T02:31:52.653Z,12
2017-10-22T02:32:51.313Z,12
2017-10-22T02:33:50.617Z,12
2017-10-22T02:34:49.630Z,12
2017-10-22T02:35:49.018Z,12
2017-10-22T02:36:48.313Z,12
2017-10-22T02:37:47.598Z,12.1
2017-10-22T02:38:46.882Z,12
2017-10-22T02:39:45.541Z,12.1
2017-10-22T02:40:44.690Z,12
2017-10-22T02:41:44.349Z,12
2017-10-22T02:42:43.499Z,12
2017-10-22T02:43:42.787Z,12
2017-10-22T02:44:41.306Z,12
2017-10-22T02:45:40.829Z,12
2017-10-22T02:46:39.851Z,12
2017-10-22T02:47:39.010Z,12
2017-10-22T02:48:38.391Z,12
2017-10-22T02:49:37.554Z,12
2017-10-22T02:50:36.704Z,12
2017-10-22T02:51:35.720Z,12
2017-10-22T02:52:35.645Z,12
2017-10-22T02:54:33.812Z,12
2017-10-22T02:55:33.096Z,12
2017-10-22T02:56:31.476Z,12
2017-10-22T02:57:31.274Z,12
2017-10-22T02:58:30.431Z,12
2017-10-22T02:59:29.569Z,12
2017-10-22T03:00:28.457Z,11.9
2017-10-22T03:01:27.968Z,11.9
2017-10-22T03:02:27.382Z,11.9
2017-10-22T03:03:25.899Z,11.9
2017-10-22T03:04:25.554Z,11.9
2017-10-22T03:05:24.566Z,11.9
2017-10-22T03:06:23.584Z,11.9
2017-10-22T03:07:22.871Z,11.9
2017-10-22T03:08:21.888Z,11.9
2017-10-22T03:09:21.276Z,11.8
2017-10-22T03:10:20.159Z,11.8
2017-10-22T03:11:19.679Z,11.8
2017-10-22T03:11:49.878Z,11.8
2017-10-22T03:13:18.073Z,11.8
2017-10-22T03:15:16.101Z,11.7
2017-10-22T03:16:15.751Z,11.8
2017-10-22T03:17:14.766Z,11.8
2017-10-22T03:18:13.923Z,11.7
2017-10-22T03:19:12.804Z,11.7
2017-10-22T03:20:12.453Z,11.7
2017-10-22T03:21:11.471Z,11.7
2017-10-22T03:21:42.288Z,11.7
2017-10-22T03:22:12.889Z,11.7
2017-10-22T03:22:43.224Z,11.7
2017-10-22T03:24:09.193Z,11.7
2017-10-22T03:25:08.345Z,11.7
2017-10-22T03:26:07.759Z,11.7
2017-10-22T03:27:06.275Z,11.7
2017-10-22T03:28:05.933Z,11.7
2017-10-22T03:29:05.079Z,11.7
2017-10-22T03:30:04.383Z,11.7
2017-10-22T03:31:03.307Z,11.7
2017-10-22T03:32:02.197Z,11.7
2017-10-22T03:33:01.718Z,11.7
2017-10-22T03:34:59.761Z,11.6
2017-10-22T03:35:59.277Z,11.6
2017-10-22T03:36:58.422Z,11.6
2017-10-22T03:37:57.307Z,11.6
2017-10-22T03:38:56.697Z,11.6
2017-10-22T03:39:55.972Z,11.6
2017-10-22T03:40:54.990Z,11.6
2017-10-22T03:41:54.155Z,11.6
2017-10-22T03:42:53.166Z,11.5
2017-10-22T03:43:52.579Z,11.6
2017-10-22T03:44:51.875Z,11.5
2017-10-22T03:45:50.896Z,11.5
2017-10-22T03:46:50.305Z,11.6
2017-10-22T03:47:49.346Z,11.6
2017-10-22T03:48:48.375Z,11.6
2017-10-22T03:49:47.940Z,11.6
2017-10-22T03:50:46.457Z,11.6
2017-10-22T03:51:46.507Z,11.6
2017-10-22T03:52:45.165Z,11.5
2017-10-22T03:53:44.323Z,11.5
2017-10-22T03:54:43.743Z,11.5
2017-10-22T03:55:42.389Z,11.5
2017-10-22T03:56:42.036Z,11.5
2017-10-22T03:57:40.921Z,11.5
2017-10-22T03:58:40.210Z,11.5
2017-10-22T03:59:39.225Z,11.5
2017-10-22T04:00:39.030Z,11.5
2017-10-22T04:01:37.276Z,11.5
2017-10-22T04:02:37.057Z,11.5
2017-10-22T04:03:07.648Z,11.5
2017-10-22T04:03:38.103Z,11.4
2017-10-22T04:04:35.112Z,11.4
2017-10-22T04:05:34.127Z,11.4
2017-10-22T04:06:33.512Z,11.4
2017-10-22T04:07:32.536Z,11.4
2017-10-22T04:08:31.835Z,11.5
2017-10-22T04:09:30.721Z,11.5
2017-10-22T04:10:30.364Z,11.5
2017-10-22T04:11:29.655Z,11.5
2017-10-22T04:12:28.952Z,11.5
2017-10-22T04:13:27.604Z,11.5
2017-10-22T04:14:27.395Z,11.5
2017-10-22T04:15:26.172Z,11.5
2017-10-22T04:16:25.611Z,11.5
2017-10-22T04:17:24.627Z,11.5
2017-10-22T04:18:23.917Z,11.4
2017-10-22T04:19:22.663Z,11.5
2017-10-22T04:20:21.811Z,11.4
2017-10-22T04:21:21.104Z,11.4
2017-10-22T04:23:19.514Z,11.4
2017-10-22T04:24:18.524Z,11.4
2017-10-22T04:25:17.537Z,11.4
2017-10-22T04:26:16.790Z,11.4
2017-10-22T04:27:15.951Z,11.4
2017-10-22T04:28:14.963Z,11.4
2017-10-22T04:29:14.618Z,11.4
2017-10-22T04:30:13.771Z,11.3
2017-10-22T04:31:12.653Z,11.3
2017-10-22T04:32:11.809Z,11.3
2017-10-22T04:33:11.335Z,11.3
2017-10-22T04:34:10.496Z,11.3
2017-10-22T04:35:09.518Z,11.3
2017-10-22T04:36:08.671Z,11.3
2017-10-22T04:37:07.950Z,11.3
2017-10-22T04:38:06.967Z,11.2
2017-10-22T04:39:05.979Z,11.2
2017-10-22T04:40:04.996Z,11.2
2017-10-22T04:41:04.507Z,11.2
2017-10-22T04:42:03.520Z,11.2
2017-10-22T04:43:03.162Z,11.1
2017-10-22T04:44:02.456Z,11.1
2017-10-22T04:45:01.233Z,11.1
2017-10-22T04:46:00.386Z,11.1
2017-10-22T04:46:59.537Z,11.1
2017-10-22T04:47:58.685Z,11.1
2017-10-22T04:48:57.567Z,11.1
2017-10-22T04:49:57.074Z,11.1
2017-10-22T04:50:56.500Z,11
2017-10-22T04:51:55.555Z,11
2017-10-22T04:52:54.570Z,11
2017-10-22T04:53:53.322Z,11
2017-10-22T04:54:52.576Z,11
2017-10-22T04:55:52.372Z,11
2017-10-22T04:56:51.398Z,11
2017-10-22T04:57:50.414Z,10.9
2017-10-22T04:58:49.831Z,11
2017-10-22T04:59:48.852Z,11
2017-10-22T05:00:48.278Z,10.9
2017-10-22T05:01:47.070Z,10.9
2017-10-22T05:02:45.952Z,10.9
2017-10-22T05:03:45.611Z,10.9
2017-10-22T05:04:44.777Z,10.8
2017-10-22T05:05:43.427Z,10.8
2017-10-22T05:06:43.091Z,10.8
2017-10-22T05:07:42.243Z,10.8
2017-10-22T05:08:41.397Z,10.8
2017-10-22T05:09:40.672Z,10.8
2017-10-22T05:10:39.818Z,10.8
2017-10-22T05:11:38.702Z,10.7
2017-10-22T05:12:37.718Z,10.7
2017-10-22T05:13:36.597Z,10.7
2017-10-22T05:14:36.394Z,10.7
2017-10-22T05:15:35.198Z,10.7
2017-10-22T05:16:34.351Z,10.6
2017-10-22T05:17:33.498Z,10.7
2017-10-22T05:18:32.650Z,10.6
2017-10-22T05:19:31.666Z,10.6
2017-10-22T05:20:31.182Z,10.6
2017-10-22T05:22:28.969Z,10.6
2017-10-22T05:23:28.499Z,10.6
2017-10-22T05:24:27.647Z,10.5
2017-10-22T05:25:26.936Z,10.5
2017-10-22T05:26:26.080Z,10.5
2017-10-22T05:27:24.962Z,10.5
2017-10-22T05:28:24.742Z,10.5
2017-10-22T05:29:23.497Z,10.5
2017-10-22T05:30:22.653Z,10.5
2017-10-22T05:31:21.660Z,10.5
2017-10-22T05:32:21.070Z,10.5
2017-10-22T05:33:20.365Z,10.5
2017-10-22T05:34:19.542Z,10.5
2017-10-22T05:35:18.556Z,10.4
2017-10-22T05:36:17.566Z,10.4
2017-10-22T05:37:16.580Z,10.4
2017-10-22T05:37:46.782Z,10.4
2017-10-22T05:38:16.987Z,10.4
2017-10-22T05:38:47.339Z,10.4
2017-10-22T05:40:14.036Z,10.5
2017-10-22T05:41:13.428Z,10.5
2017-10-22T05:42:12.578Z,10.5
2017-10-22T05:43:11.457Z,10.5
2017-10-22T05:44:11.320Z,10.5
2017-10-22T05:45:09.713Z,10.5
2017-10-22T05:46:09.365Z,10.4
2017-10-22T05:47:08.519Z,10.4
2017-10-22T05:48:07.673Z,10.4
2017-10-22T05:49:06.825Z,10.4
2017-10-22T05:50:05.838Z,10.4
2017-10-22T05:51:04.984Z,10.4
2017-10-22T05:53:03.406Z,10.4
2017-10-22T05:54:02.560Z,10.3
2017-10-22T05:55:01.721Z,10.3
2017-10-22T05:56:00.999Z,10.3
2017-10-22T05:56:59.515Z,10.3
2017-10-22T05:57:59.163Z,10.3
2017-10-22T05:58:58.182Z,10.2
2017-10-22T05:59:57.194Z,10.2
2017-10-22T06:00:56.352Z,10.2
2017-10-22T06:02:54.888Z,10.2
2017-10-22T06:03:53.906Z,10.2
2017-10-22T06:04:53.316Z,10.1
2017-10-22T06:05:51.956Z,10.1
2017-10-22T06:06:50.839Z,10.1
2017-10-22T06:07:50.627Z,10.1
2017-10-22T06:08:49.638Z,10.1
2017-10-22T06:09:48.663Z,10.1
2017-10-22T06:10:47.807Z,10
2017-10-22T06:11:46.831Z,10
2017-10-22T06:12:46.350Z,10
2017-10-22T06:13:45.236Z,9.9
2017-10-22T06:14:44.392Z,9.9
2017-10-22T06:15:43.275Z,9.9
2017-10-22T06:16:42.918Z,9.9
2017-10-22T06:17:41.936Z,9.9
2017-10-22T06:18:41.080Z,10
2017-10-22T06:19:40.093Z,10
2017-10-22T06:20:38.975Z,10
2017-10-22T06:21:09.815Z,10
2017-10-22T06:21:40.149Z,10
2017-10-22T06:22:37.663Z,10
2017-10-22T06:23:37.076Z,10
2017-10-22T06:24:35.719Z,10
2017-10-22T06:25:34.997Z,10
2017-10-22T06:26:34.028Z,10
2017-10-22T06:27:33.287Z,10
2017-10-22T06:28:32.301Z,10
2017-10-22T06:29:31.962Z,10
2017-10-22T06:30:30.979Z,10
2017-10-22T06:32:29.255Z,10
2017-10-22T06:33:28.412Z,10
2017-10-22T06:34:27.434Z,10
2017-10-22T06:35:26.189Z,10
2017-10-22T06:38:23.980Z,10.1
2017-10-22T06:39:23.260Z,10.1
2017-10-22T06:40:22.414Z,10.1
2017-10-22T06:41:21.964Z,10.1
2017-10-22T06:42:20.745Z,10.1
2017-10-22T06:43:19.896Z,10.2
2017-10-22T06:44:19.053Z,10.2
2017-10-22T06:45:18.198Z,10.2
2017-10-22T06:46:17.488Z,10.2
2017-10-22T06:47:16.263Z,10.2
2017-10-22T06:48:15.410Z,10.2
2017-10-22T06:49:14.302Z,10.2
2017-10-22T06:50:13.957Z,10.2
2017-10-22T06:51:13.119Z,10.2
2017-10-22T06:52:12.132Z,10.2
2017-10-22T06:53:11.278Z,10.2
2017-10-22T06:54:10.293Z,10.1
2017-10-22T06:55:09.449Z,10.1
2017-10-22T06:56:08.597Z,10.1
2017-10-22T06:57:07.480Z,10.1
2017-10-22T06:58:06.742Z,10.1
2017-10-22T06:59:06.390Z,10.1
2017-10-22T07:00:05.547Z,10.1
2017-10-22T07:01:03.930Z,10.1
2017-10-22T07:02:03.319Z,10.1
2017-10-22T07:03:02.870Z,10.1
2017-10-22T07:04:02.147Z,10.1
2017-10-22T07:05:01.051Z,10.1
2017-10-22T07:06:00.076Z,10.1
2017-10-22T07:06:59.098Z,10.1
2017-10-22T07:07:58.534Z,10.1
2017-10-22T07:08:57.683Z,10.1
2017-10-22T07:09:56.958Z,10.1
2017-10-22T07:10:55.974Z,10.1
2017-10-22T07:11:55.265Z,10.1
2017-10-22T07:12:53.908Z,10.1
2017-10-22T07:13:53.070Z,10.1
2017-10-22T07:14:51.954Z,10.1
2017-10-22T07:15:51.472Z,10
2017-10-22T07:16:50.619Z,10.1
2017-10-22T07:17:49.766Z,10.1
2017-10-22T07:18:48.791Z,10
2017-10-22T07:19:19.116Z,10
2017-10-22T07:19:49.181Z,10
2017-10-22T07:20:47.197Z,10
2017-10-22T07:21:46.515Z,10
2017-10-22T07:22:45.936Z,10
2017-10-22T07:24:43.829Z,10.1
2017-10-22T07:25:42.975Z,10
2017-10-22T07:26:42.256Z,10
2017-10-22T07:27:41.260Z,10
2017-10-22T07:28:40.271Z,10
2017-10-22T07:29:39.295Z,10
2017-10-22T07:30:38.677Z,10
2017-10-22T07:31:37.838Z,10
2017-10-22T07:32:36.851Z,10
2017-10-22T07:33:36.007Z,10
2017-10-22T07:34:35.025Z,10
2017-10-22T07:35:34.308Z,10
2017-10-22T07:36:33.070Z,10
2017-10-22T07:37:32.996Z,10
2017-10-22T07:38:31.632Z,10
2017-10-22T07:39:30.795Z,10.1
2017-10-22T07:40:29.941Z,10.1
2017-10-22T07:41:29.089Z,10.1
2017-10-22T07:42:28.238Z,10.1
2017-10-22T07:43:27.521Z,10.2
2017-10-22T07:44:26.541Z,10.2
2017-10-22T07:45:25.553Z,10.2
2017-10-22T07:46:24.565Z,10.3
2017-10-22T07:47:24.230Z,10.3
2017-10-22T07:48:22.892Z,10.4
2017-10-22T07:49:22.539Z,10.4
2017-10-22T07:50:21.046Z,10.4
2017-10-22T07:51:20.299Z,10.4
2017-10-22T07:52:20.217Z,10.4
2017-10-22T07:53:19.008Z,10.4
2017-10-22T07:54:18.031Z,10.5
2017-10-22T07:55:16.921Z,10.5
2017-10-22T07:56:16.174Z,10.5
2017-10-22T07:57:15.318Z,10.6
2017-10-22T07:58:14.338Z,10.6
2017-10-22T07:59:13.479Z,10.6
2017-10-22T08:00:13.137Z,10.7
2017-10-22T08:01:11.932Z,10.7
2017-10-22T08:02:11.097Z,10.8
2017-10-22T08:03:10.374Z,10.9
2017-10-22T08:04:09.405Z,10.9
2017-10-22T08:05:08.280Z,10.9
2017-10-22T08:06:07.806Z,10.9
2017-10-22T08:07:06.686Z,11
2017-10-22T08:08:06.073Z,11.1
2017-10-22T08:09:05.090Z,11.1
2017-10-22T08:10:04.248Z,11.1
2017-10-22T08:11:03.140Z,11.1
2017-10-22T08:12:02.661Z,11.1
2017-10-22T08:13:01.552Z,11.2
2017-10-22T08:14:00.693Z,11.2
2017-10-22T08:15:00.102Z,11.2
2017-10-22T08:15:59.253Z,11.2
2017-10-22T08:16:58.412Z,11.2
2017-10-22T08:17:57.299Z,11.2
2017-10-22T08:18:56.551Z,11.3
2017-10-22T08:19:55.566Z,11.3
2017-10-22T08:20:55.214Z,11.3
2017-10-22T08:21:53.864Z,11.3
2017-10-22T08:22:52.889Z,11.4
2017-10-22T08:23:52.815Z,11.4
2017-10-22T08:24:51.329Z,11.4
2017-10-22T08:25:50.974Z,11.4
2017-10-22T08:26:49.894Z,11.5
2017-10-22T08:27:48.914Z,11.5
2017-10-22T08:28:48.195Z,11.5
2017-10-22T08:29:47.472Z,11.5
2017-10-22T08:30:46.763Z,11.5
2017-10-22T08:31:45.284Z,11.5
2017-10-22T08:32:44.676Z,11.5
2017-10-22T08:34:43.349Z,11.6
2017-10-22T08:35:41.864Z,11.6
2017-10-22T08:36:41.382Z,11.6
2017-10-22T08:37:40.669Z,11.6
2017-10-22T08:38:39.960Z,11.7
2017-10-22T08:39:38.846Z,11.7
2017-10-22T08:40:37.993Z,11.7
2017-10-22T08:41:37.143Z,11.8
2017-10-22T08:42:36.160Z,11.9
2017-10-22T08:43:35.681Z,11.9
2017-10-22T08:44:34.695Z,11.9
2017-10-22T08:45:33.585Z,11.9
2017-10-22T08:46:32.732Z,11.9
2017-10-22T08:47:32.124Z,11.9
2017-10-22T08:48:31.549Z,11.9
2017-10-22T08:49:30.196Z,11.9
2017-10-22T08:50:29.851Z,11.9
2017-10-22T08:51:29.137Z,12
2017-10-22T08:52:28.442Z,12
2017-10-22T08:54:26.512Z,12.2
2017-10-22T08:55:25.531Z,12.2
2017-10-22T08:56:24.799Z,12.2
2017-10-22T08:57:24.077Z,12.2
2017-10-22T08:58:23.107Z,12.2
2017-10-22T08:59:21.847Z,12.2
2017-10-22T09:00:21.374Z,12.2
2017-10-22T09:01:20.533Z,12.3
2017-10-22T09:02:19.688Z,12.2
2017-10-22T09:03:18.581Z,12.3
2017-10-22T09:04:18.100Z,12.3
2017-10-22T09:05:17.516Z,12.3
2017-10-22T09:06:16.023Z,12.4
2017-10-22T09:07:15.303Z,12.4
2017-10-22T09:08:14.462Z,12.4
2017-10-22T09:09:13.488Z,12.4
2017-10-22T09:10:13.143Z,12.5
2017-10-22T09:11:11.926Z,12.5
2017-10-22T09:12:11.450Z,12.5
2017-10-22T09:13:10.599Z,12.5
2017-10-22T09:14:09.480Z,12.5
2017-10-22T09:15:08.759Z,12.5
2017-10-22T09:16:08.042Z,12.5
2017-10-22T09:17:07.202Z,12.5
2017-10-22T09:18:06.220Z,12.5
2017-10-22T09:19:05.502Z,12.6
2017-10-22T09:20:04.658Z,12.6
2017-10-22T09:21:03.670Z,12.5
2017-10-22T09:22:02.815Z,12.6
2017-10-22T09:23:01.854Z,12.6
2017-10-22T09:24:01.374Z,12.6
2017-10-22T09:25:00.676Z,12.6
2017-10-22T09:25:59.825Z,12.6
2017-10-22T09:26:58.849Z,12.7
2017-10-22T09:27:58.130Z,12.7
2017-10-22T09:28:57.420Z,12.6
2017-10-22T09:29:56.332Z,12.6
2017-10-22T09:30:55.473Z,12.6
2017-10-22T09:31:54.752Z,12.7
2017-10-22T09:32:53.912Z,12.7
2017-10-22T09:33:52.927Z,12.7
2017-10-22T09:34:51.943Z,12.7
2017-10-22T09:35:51.451Z,12.7
2017-10-22T09:36:50.347Z,12.8
2017-10-22T09:37:50.040Z,12.7
2017-10-22T09:38:48.564Z,12.7
2017-10-22T09:40:46.962Z,12.7
2017-10-22T09:41:46.615Z,12.7
2017-10-22T09:42:45.636Z,12.6
2017-10-22T09:43:44.523Z,12.5
2017-10-22T09:44:44.175Z,12.6
2017-10-22T09:45:43.455Z,12.6
2017-10-22T09:46:42.243Z,12.6
2017-10-22T09:47:41.001Z,12.6
2017-10-22T09:48:40.553Z,12.6
2017-10-22T09:49:39.973Z,12.6
2017-10-22T09:50:39.125Z,12.7
2017-10-22T09:51:38.145Z,12.7
2017-10-22T09:52:37.298Z,12.7
2017-10-22T09:53:36.439Z,12.7
2017-10-22T09:54:35.957Z,12.7
2017-10-22T09:55:34.975Z,12.7
2017-10-22T09:56:33.991Z,12.7
2017-10-22T09:57:33.375Z,12.7
2017-10-22T09:58:32.255Z,12.7
2017-10-22T09:59:31.401Z,12.7
2017-10-22T10:00:31.192Z,12.7
2017-10-22T10:01:30.343Z,12.7
2017-10-22T10:02:29.123Z,12.7
2017-10-22T10:03:28.553Z,12.7
2017-10-22T10:04:27.567Z,12.7
2017-10-22T10:05:26.720Z,12.7
2017-10-22T10:06:25.732Z,12.7
2017-10-22T10:07:25.388Z,12.7
2017-10-22T10:08:24.274Z,12.7
2017-10-22T10:08:55.104Z,12.7
2017-10-22T10:10:22.802Z,12.8
2017-10-22T10:12:21.486Z,12.8
2017-10-22T10:13:20.141Z,12.8
2017-10-22T10:14:19.152Z,12.8
2017-10-22T10:15:18.312Z,12.8
2017-10-22T10:16:17.971Z,12.9
2017-10-22T10:17:17.120Z,12.9
2017-10-22T10:18:16.270Z,12.9
2017-10-22T10:19:15.432Z,12.9
2017-10-22T10:20:14.584Z,13
2017-10-22T10:21:13.473Z,13
2017-10-22T10:22:12.771Z,13
2017-10-22T10:23:12.313Z,13.1
2017-10-22T10:24:11.327Z,13.1
2017-10-22T10:25:10.472Z,13.2
2017-10-22T10:26:09.626Z,13.2
2017-10-22T10:27:08.776Z,13.2
2017-10-22T10:27:38.966Z,13.2
2017-10-22T10:28:09.436Z,13.2
2017-10-22T10:28:39.766Z,13.2
2017-10-22T10:30:06.468Z,13.2
2017-10-22T10:31:05.355Z,13.2
2017-10-22T10:32:05.032Z,13.2
2017-10-22T10:33:03.920Z,13.1
2017-10-22T10:34:02.950Z,13.1
2017-10-22T10:35:02.604Z,13.1
2017-10-22T10:36:01.900Z,13.1
2017-10-22T10:37:00.964Z,13.2
2017-10-22T10:38:00.379Z,13.1
2017-10-22T10:38:59.296Z,13.1
2017-10-22T10:39:58.309Z,13.1
2017-10-22T10:40:57.460Z,13.1
2017-10-22T10:41:56.491Z,13.1
2017-10-22T10:42:55.640Z,13.1
2017-10-22T10:43:55.291Z,13.1
2017-10-22T10:44:54.575Z,13.1
2017-10-22T10:45:53.368Z,13.1
2017-10-22T10:46:52.898Z,13.1
2017-10-22T10:47:51.908Z,13.1
2017-10-22T10:48:50.804Z,13.1
2017-10-22T10:49:50.328Z,13.1
2017-10-22T10:50:49.214Z,13.1
2017-10-22T10:51:48.870Z,13.1
2017-10-22T10:53:47.033Z,13
2017-10-22T10:54:46.232Z,13
2017-10-22T10:55:45.374Z,13
2017-10-22T10:56:44.400Z,13
2017-10-22T10:57:44.063Z,13
2017-10-22T10:58:43.223Z,12.9
2017-10-22T10:59:42.370Z,12.9
2017-10-22T11:00:41.520Z,12.9
2017-10-22T11:01:40.813Z,12.9
2017-10-22T11:02:39.840Z,12.9
2017-10-22T11:03:38.739Z,12.9
2017-10-22T11:04:08.938Z,12.9
2017-10-22T11:04:39.138Z,12.9
2017-10-22T11:05:37.150Z,12.9
2017-10-22T11:06:36.538Z,12.9
2017-10-22T11:07:35.692Z,13
2017-10-22T11:08:34.837Z,13
2017-10-22T11:09:33.984Z,13
2017-10-22T11:10:33.509Z,13
2017-10-22T11:11:32.525Z,13
2017-10-22T11:12:31.805Z,13
2017-10-22T11:13:30.827Z,13.1
2017-10-22T11:14:29.854Z,13.1
2017-10-22T11:15:29.649Z,13.1
2017-10-22T11:16:28.430Z,13.1
2017-10-22T11:17:27.734Z,13.1
2017-10-22T11:18:26.751Z,13.1
2017-10-22T11:19:26.280Z,13.1
2017-10-22T11:20:25.161Z,13.1
2017-10-22T11:21:24.545Z,13.1
2017-10-22T11:22:23.961Z,13.1
2017-10-22T11:23:23.109Z,13.1
2017-10-22T11:24:22.262Z,13
2017-10-22T11:25:21.156Z,13
2017-10-22T11:26:20.818Z,13
2017-10-22T11:27:19.500Z,13
2017-10-22T11:28:19.288Z,13
2017-10-22T11:29:18.077Z,13
2017-10-22T11:30:17.224Z,13
2017-10-22T11:31:16.510Z,13
2017-10-22T11:32:15.661Z,13
2017-10-22T11:33:14.681Z,13
2017-10-22T11:35:13.356Z,13
2017-10-22T11:36:12.370Z,13
2017-10-22T11:37:11.389Z,12.9
2017-10-22T11:38:11.301Z,12.9
2017-10-22T11:39:09.826Z,12.9
2017-10-22T11:40:08.852Z,12.9
2017-10-22T11:41:08.507Z,12.9
2017-10-22T11:42:07.941Z,12.9
2017-10-22T11:43:06.584Z,12.9
2017-10-22T11:44:06.103Z,12.9
2017-10-22T11:44:36.569Z,12.9
2017-10-22T11:45:06.622Z,12.9
2017-10-22T11:45:37.719Z,12.9
2017-10-22T11:46:08.328Z,12.9
2017-10-22T11:46:38.390Z,12.9
2017-10-22T11:49:01.828Z,12.8
2017-10-22T11:50:01.489Z,12.8
2017-10-22T11:50:59.876Z,12.8
2017-10-22T11:51:59.265Z,12.8
2017-10-22T11:52:59.173Z,12.8
2017-10-22T11:53:58.191Z,12.8
2017-10-22T11:55:56.873Z,12.8
2017-10-22T11:56:55.115Z,12.8
2017-10-22T11:57:54.500Z,12.8
2017-10-22T11:58:54.156Z,12.8
2017-10-22T11:59:53.170Z,12.7
2017-10-22T12:00:52.594Z,12.7
2017-10-22T12:01:51.744Z,12.7
2017-10-22T12:02:50.625Z,12.7
2017-10-22T12:03:49.773Z,12.7
2017-10-22T12:04:19.965Z,12.7
2017-10-22T12:05:48.438Z,12.7
2017-10-22T12:06:47.464Z,12.7
2017-10-22T12:07:46.353Z,12.6
2017-10-22T12:09:44.769Z,12.6
2017-10-22T12:10:44.020Z,12.6
2017-10-22T12:11:43.680Z,12.6
2017-10-22T12:12:42.830Z,12.6
2017-10-22T12:13:41.722Z,12.6
2017-10-22T12:14:40.736Z,12.6
2017-10-22T12:15:40.396Z,12.6
2017-10-22T12:16:39.416Z,12.6
2017-10-22T12:17:38.564Z,12.6
2017-10-22T12:18:37.717Z,12.5
2017-10-22T12:19:36.871Z,12.6
2017-10-22T12:20:36.386Z,12.6
2017-10-22T12:21:35.537Z,12.5
2017-10-22T12:22:34.682Z,12.5
2017-10-22T12:23:33.831Z,12.5
2017-10-22T12:24:32.976Z,12.6
2017-10-22T12:25:32.330Z,12.5
2017-10-22T12:26:31.618Z,12.5
2017-10-22T12:27:30.773Z,12.5
2017-10-22T12:28:29.797Z,12.5
2017-10-22T12:29:28.818Z,12.5
2017-10-22T12:30:27.981Z,12.5
2017-10-22T12:31:27.127Z,12.5
2017-10-22T12:32:26.276Z,12.5
2017-10-22T12:33:25.796Z,12.5
2017-10-22T12:34:24.813Z,12.5
2017-10-22T12:35:23.734Z,12.5
2017-10-22T12:36:23.251Z,12.5
2017-10-22T12:37:22.282Z,12.5
2017-10-22T12:38:21.793Z,12.5
2017-10-22T12:38:52.255Z,12.5
2017-10-22T12:39:22.858Z,12.5
2017-10-22T12:40:20.002Z,12.5
2017-10-22T12:41:19.149Z,12.5
2017-10-22T12:42:18.031Z,12.5
2017-10-22T12:43:17.826Z,12.4
2017-10-22T12:44:16.842Z,12.4
2017-10-22T12:45:15.605Z,12.4
2017-10-22T12:46:15.383Z,12.4
2017-10-22T12:47:14.406Z,12.4
2017-10-22T12:48:13.695Z,12.4
2017-10-22T12:49:12.716Z,12.4
2017-10-22T12:50:11.865Z,12.4
2017-10-22T12:51:10.892Z,12.4
2017-10-22T12:52:10.433Z,12.4
2017-10-22T12:53:09.439Z,12.4
2017-10-22T12:54:08.805Z,12.4
2017-10-22T12:55:07.969Z,12.4
2017-10-22T12:56:07.124Z,12.3
2017-10-22T12:57:06.280Z,12.3
2017-10-22T12:58:05.572Z,12.2
2017-10-22T13:00:03.486Z,12.1
2017-10-22T13:01:03.276Z,12.1
2017-10-22T13:02:02.570Z,12
2017-10-22T13:03:01.476Z,12
2017-10-22T13:04:00.361Z,11.9
2017-10-22T13:04:59.517Z,11.8
2017-10-22T13:05:59.347Z,11.7
2017-10-22T13:06:57.989Z,11.6
2017-10-22T13:08:56.257Z,11.6
2017-10-22T13:09:55.149Z,11.5
2017-10-22T13:10:54.802Z,11.5
2017-10-22T13:11:53.814Z,11.4
2017-10-22T13:12:53.203Z,11.4
2017-10-22T13:13:52.611Z,11.4
2017-10-22T13:14:51.630Z,11.4
2017-10-22T13:15:50.648Z,11.4
2017-10-22T13:16:49.940Z,11.3
2017-10-22T13:17:48.830Z,11.3
2017-10-22T13:18:48.210Z,11.3
2017-10-22T13:19:47.095Z,11.3
2017-10-22T13:20:46.484Z,11.3
2017-10-22T13:21:46.006Z,11.3
2017-10-22T13:22:45.158Z,11.3
2017-10-22T13:23:44.297Z,11.3
2017-10-22T13:24:43.577Z,11.3
2017-10-22T13:25:42.605Z,11.3
2017-10-22T13:26:41.622Z,11.3
2017-10-22T13:27:40.904Z,11.3
2017-10-22T13:28:40.309Z,11.3
2017-10-22T13:29:39.455Z,11.3
2017-10-22T13:30:38.344Z,11.3